Aérodrome :
LOGIN :

Register | Disclaimer

   EN    FR    IT 

 

















- Airport Elevation : 512 ft
- IATA code : URO
- Download approach charts


LFOP - Rouen Vallée de Seine

CURRENT METAR :
  • 211000Z AUTO 11004KT 9000 SCT020 SCT033 OVC041 05/04 Q1017 BECMG 4000 RA OVC008

EXPIRED METARs :
  • 210930Z AUTO 14003KT 9999 -DZ BKN042 BKN048 OVC054 05/04 Q1016 BECMG 4000 RA OVC008
  • 210900Z AUTO 15005KT CAVOK 05/04 Q1016 BECMG 4000 RA OVC008
  • 210830Z AUTO 17003KT CAVOK 04/03 Q1016 BECMG 4000 RA OVC008
  • 210800Z AUTO 19002KT CAVOK 04/03 Q1016 BECMG 4000 RA OVC008
  • 210730Z AUTO 18004KT CAVOK 04/03 Q1016 BECMG 4000 RA OVC008

TAF TAF LFOP
Valid from the 21 at 06:00 until the 22 at 06:00 UTC


210500Z 2106/2206 VRB02KT 9999 BKN016
BECMG 2109/2112 15010KT 4000 RA OVC008
TEMPO 2112/2206 2000 RADZ OVC002
BECMG 2118/2120 27012KT
ATIS : +33 2 35 80 80 34
Met : +33 2 32 86 52 80
No reported NOTAMs for that airfield.
3 SIGMETs reported for the Paris FIR (LFFF) :
 
Severe icing
LFFF SIGMET 3 VALID 210900/211300 LFPW
LFFF PARIS FIR/UIR SEV ICE OBS AT 0900Z S OF N4700 AND E OF E00345 FL140/240 MOV E 10KT WKN=
SIGMET 1  cancelation
LFFF SIGMET 2 VALID 210855/211200 LFPW
LFFF PARIS FIR/UIR CNL SIGMET 1 210800/211200=
SIGMET 1  CANCELED :
Severe icing
LFFF SIGMET 1 VALID 210800/211200 LFPW
LFFF PARIS FIR/UIR SEV ICE FCST WI N4845 W00015 - N5000 W00015 - N5030 E00045 - N4830 E00330 - N4730 E00130 - N4845 W00015 FL050/150 MOV NE 15KT NC=





SOURCES & CREDITS :

   NOAA